Time;durP1;ratioP1;P1;durP2;ratioP2;P2;SDS_P1;SDS_P2;PMS_P1;PMS_P2;Temp;Humidity;BMP_temperature;BMP_pressure;BME280_temperature;BME280_humidity;BME280_pressure;Samples;Min_cycle;Max_cycle;Signal;HPM_P1;HPM_P2
2021/10/19 00:01:33;;;;;;;51.65;19.30;;;;;;;4.95;100.00;101341.39;1779688;80;21022;-83
2021/10/19 00:03:59;;;;;;;53.25;20.85;;;;;;;5.04;100.00;101332.67;1779330;80;20959;-82
2021/10/19 00:06:24;;;;;;;46.50;19.65;;;;;;;5.12;100.00;101333.81;1779364;80;20975;-81
2021/10/19 00:08:50;;;;;;;48.15;19.50;;;;;;;5.20;100.00;101325.05;1784427;80;21117;-82
2021/10/19 00:11:16;;;;;;;49.90;18.55;;;;;;;5.29;100.00;101320.83;1785323;80;20840;-82
2021/10/19 00:13:42;;;;;;;50.00;19.45;;;;;;;5.37;100.00;101323.30;1785280;80;21558;-88
2021/10/19 00:16:11;;;;;;;44.90;18.67;;;;;;;5.46;100.00;101323.39;1785515;80;20833;-83
2021/10/19 00:18:37;;;;;;;58.92;20.57;;;;;;;5.54;100.00;101317.02;1785066;80;21011;-86
2021/10/19 00:21:04;;;;;;;49.15;20.10;;;;;;;5.64;100.00;101314.72;1785244;80;21120;-81
2021/10/19 00:23:30;;;;;;;53.55;19.40;;;;;;;5.74;100.00;101312.97;1785063;80;20995;-82
2021/10/19 00:25:56;;;;;;;45.65;18.87;;;;;;;5.82;100.00;101310.05;1785152;80;21105;-82
2021/10/19 00:28:22;;;;;;;55.28;19.75;;;;;;;5.89;100.00;101309.00;1785624;80;20884;-83
2021/10/19 00:30:48;;;;;;;50.90;19.67;;;;;;;5.98;100.00;101314.16;1785348;80;20892;-83
2021/10/19 00:33:14;;;;;;;53.78;19.70;;;;;;;6.05;100.00;101305.58;1785354;80;21409;-82
2021/10/19 00:35:40;;;;;;;48.08;19.45;;;;;;;6.11;100.00;101296.69;1785167;80;21621;-83
2021/10/19 00:38:06;;;;;;;52.05;18.95;;;;;;;6.11;100.00;101296.69;1785497;80;20907;-83
2021/10/19 00:40:35;;;;;;;51.98;19.65;;;;;;;6.28;100.00;101311.75;1756898;80;20852;-83
2021/10/19 00:42:59;;;;;;;47.33;17.77;;;;;;;6.34;100.00;101308.22;1785147;80;20931;-83
2021/10/19 00:45:25;;;;;;;49.50;19.52;;;;;;;6.39;100.00;101304.91;1756617;80;21205;-88
2021/10/19 00:47:51;;;;;;;48.75;18.75;;;;;;;6.45;100.00;101306.20;1785256;80;22390;-83
2021/10/19 00:50:19;;;;;;;47.53;18.67;;;;;;;6.51;100.00;101298.66;1785481;80;20987;-83
2021/10/19 00:52:47;;;;;;;44.85;19.48;;;;;;;6.57;100.00;101304.48;1785337;80;21102;-82
2021/10/19 00:55:13;;;;;;;46.77;18.70;;;;;;;6.64;100.00;101298.27;1785615;80;21042;-80
2021/10/19 00:57:39;;;;;;;48.92;19.75;;;;;;;6.69;100.00;101302.45;1785773;80;21156;-83
2021/10/19 01:00:09;;;;;;;50.88;18.70;;;;;;;6.75;100.00;101306.42;1785376;80;21468;-82
2021/10/19 01:02:35;;;;;;;51.08;18.35;;;;;;;6.80;100.00;101301.77;1785163;80;21508;-82
2021/10/19 01:05:05;;;;;;;44.90;17.80;;;;;;;6.86;100.00;101302.77;1785432;80;21015;-83
2021/10/19 01:07:31;;;;;;;49.42;18.27;;;;;;;6.87;100.00;101299.85;1785307;80;21098;-84
2021/10/19 01:09:57;;;;;;;45.03;17.65;;;;;;;6.90;100.00;101302.09;1785468;80;21144;-83
2021/10/19 01:12:24;;;;;;;44.03;17.92;;;;;;;6.93;100.00;101304.86;1785168;80;20876;-86
2021/10/19 01:14:49;;;;;;;46.77;16.45;;;;;;;6.95;100.00;101304.13;1785398;80;20995;-83
2021/10/19 01:17:18;;;;;;;48.45;18.35;;;;;;;6.96;100.00;101307.10;1785176;80;20971;-82
2021/10/19 01:19:50;;;;;;;46.37;17.90;;;;;;;6.99;100.00;101313.36;1784540;80;21503;-81
2021/10/19 01:22:17;;;;;;;51.42;18.95;;;;;;;7.01;100.00;101308.09;1742361;82;21144;-81
2021/10/19 01:27:11;;;;;;;40.23;16.48;;;;;;;7.07;100.00;101310.42;1681882;84;21064;-83
2021/10/19 01:29:37;;;;;;;46.63;18.42;;;;;;;7.09;100.00;101308.84;1681996;84;21135;-82
2021/10/19 01:32:05;;;;;;;44.90;17.10;;;;;;;7.11;100.00;101314.29;1682505;84;21087;-81
2021/10/19 01:34:36;;;;;;;48.40;18.57;;;;;;;7.13;100.00;101308.20;1682185;83;21166;-83
2021/10/19 01:37:05;;;;;;;47.75;17.37;;;;;;;7.15;100.00;101308.81;1682234;83;21100;-82
2021/10/19 01:39:31;;;;;;;41.20;16.15;;;;;;;7.17;100.00;101313.41;1682238;84;21036;-83
2021/10/19 01:41:57;;;;;;;40.88;16.65;;;;;;;7.20;100.00;101307.61;1682399;83;20941;-82
2021/10/19 01:44:23;;;;;;;46.65;17.25;;;;;;;7.24;100.00;101305.34;1682258;84;22602;-88
2021/10/19 01:46:49;;;;;;;40.78;17.07;;;;;;;7.26;100.00;101308.09;1682375;83;20940;-83
2021/10/19 01:49:14;;;;;;;46.18;16.82;;;;;;;7.27;100.00;101307.05;1682177;84;20894;-82
2021/10/19 01:51:40;;;;;;;47.58;17.23;;;;;;;7.30;100.00;101306.31;1682469;83;20909;-83
2021/10/19 01:54:06;;;;;;;41.10;17.02;;;;;;;7.32;100.00;101306.90;1682428;83;21490;-83
2021/10/19 01:56:33;;;;;;;41.83;16.97;;;;;;;7.34;100.00;101310.19;1682338;83;21462;-88
2021/10/19 01:58:58;;;;;;;39.58;16.90;;;;;;;7.36;100.00;101309.45;1682013;83;21229;-83
2021/10/19 02:01:24;;;;;;;42.05;17.25;;;;;;;7.37;100.00;101313.23;1682034;83;20945;-81
2021/10/19 02:03:50;;;;;;;38.42;16.50;;;;;;;7.40;100.00;101310.64;1682274;83;20878;-83
2021/10/19 02:06:16;;;;;;;42.33;17.17;;;;;;;7.41;100.00;101312.27;1659124;84;21591;-83
2021/10/19 02:08:42;;;;;;;48.80;17.80;;;;;;;7.43;100.00;101315.56;1673205;83;21112;-83
2021/10/19 02:11:07;;;;;;;44.45;17.23;;;;;;;7.44;100.00;101313.17;1667664;84;21009;-81
2021/10/19 02:13:33;;;;;;;39.40;16.87;;;;;;;7.46;100.00;101322.64;1667426;83;20962;-88
2021/10/19 02:15:59;;;;;;;43.00;16.60;;;;;;;7.48;100.00;101321.09;1667490;84;20993;-83
2021/10/19 02:18:25;;;;;;;43.10;17.45;;;;;;;7.45;100.00;101318.86;1668931;84;21067;-83
2021/10/19 02:20:51;;;;;;;42.58;18.37;;;;;;;7.47;100.00;101319.43;1672386;84;21066;-82
2021/10/19 02:23:17;;;;;;;45.33;17.00;;;;;;;7.45;100.00;101316.17;1692789;80;21107;-83
2021/10/19 02:25:43;;;;;;;46.37;16.90;;;;;;;7.47;100.00;101314.06;1787667;80;20932;-85
2021/10/19 02:28:09;;;;;;;41.60;16.90;;;;;;;7.49;100.00;101327.56;1787721;80;21037;-83
2021/10/19 02:30:35;;;;;;;45.35;16.85;;;;;;;7.49;100.00;101320.86;1787514;80;21035;-83
2021/10/19 02:33:01;;;;;;;45.88;17.35;;;;;;;7.51;100.00;101327.35;1787698;80;21023;-83
2021/10/19 02:35:27;;;;;;;45.85;16.73;;;;;;;7.51;100.00;101326.83;1759177;80;21605;-84
2021/10/19 02:37:57;;;;;;;43.35;16.30;;;;;;;7.51;100.00;101326.83;1758667;80;21029;-88
2021/10/19 02:40:24;;;;;;;43.08;16.57;;;;;;;7.52;100.00;101327.64;1787545;79;21423;-86
2021/10/19 02:42:50;;;;;;;42.70;15.53;;;;;;;7.53;100.00;101331.14;1787637;80;20995;-82
2021/10/19 02:45:16;;;;;;;45.28;16.90;;;;;;;7.52;100.00;101330.33;1768471;81;21059;-83
2021/10/19 02:47:43;;;;;;;39.50;16.45;;;;;;;7.53;100.00;101321.75;1768424;81;21153;-86
2021/10/19 02:50:12;;;;;;;43.28;16.45;;;;;;;7.53;100.00;101328.45;1742993;81;21009;-82
2021/10/19 02:52:38;;;;;;;42.35;17.30;;;;;;;7.53;100.00;101332.48;1768548;81;21536;-82
2021/10/19 02:55:07;;;;;;;49.27;17.12;;;;;;;7.53;100.00;101332.48;1768406;81;21090;-81
2021/10/19 02:57:33;;;;;;;41.98;16.62;;;;;;;7.50;100.00;101337.79;1768549;81;21591;-90
2021/10/19 02:59:59;;;;;;;46.00;18.30;;;;;;;7.50;100.00;101336.45;1768326;81;21198;-83
2021/10/19 03:02:25;;;;;;;44.48;18.70;;;;;;;7.51;100.00;101338.89;1768491;81;20952;-83
2021/10/19 03:04:51;;;;;;;48.63;17.80;;;;;;;7.54;100.00;101340.31;1768477;81;21734;-82
2021/10/19 03:07:17;;;;;;;52.15;17.05;;;;;;;7.55;100.00;101340.61;1768599;81;21079;-82
2021/10/19 03:09:43;;;;;;;43.98;18.27;;;;;;;7.55;100.00;101337.92;1767617;80;21010;-84
2021/10/19 03:12:09;;;;;;;47.05;16.75;;;;;;;7.54;100.00;101340.84;1779583;80;22002;-83
2021/10/19 03:14:35;;;;;;;40.33;17.82;;;;;;;7.53;100.00;101337.34;1779418;80;21027;-83
2021/10/19 03:17:01;;;;;;;47.13;19.15;;;;;;;7.53;100.00;101344.05;1779917;80;20861;-83
2021/10/19 03:19:27;;;;;;;48.13;18.55;;;;;;;7.50;100.00;101352.55;1779516;80;20999;-86
2021/10/19 03:21:52;;;;;;;46.23;18.62;;;;;;;7.47;100.00;101343.56;1779554;80;20889;-87
2021/10/19 03:24:18;;;;;;;41.02;17.17;;;;;;;7.32;100.00;101322.98;1779311;80;21071;-83
2021/10/19 03:26:44;;;;;;;44.85;17.87;;;;;;;7.32;100.00;101322.98;1749065;80;21026;-84
2021/10/19 03:29:10;;;;;;;55.90;19.62;;;;;;;7.42;100.00;101352.29;1779704;80;20853;-83
2021/10/19 03:31:36;;;;;;;47.95;18.12;;;;;;;7.41;100.00;101356.52;1779535;80;21597;-83
2021/10/19 03:34:03;;;;;;;45.63;19.37;;;;;;;7.35;100.00;101358.21;1779539;80;20979;-84
2021/10/19 03:36:29;;;;;;;45.50;18.92;;;;;;;7.35;100.00;101358.21;1779662;80;21065;-83
2021/10/19 03:38:55;;;;;;;58.63;19.62;;;;;;;7.34;100.00;101362.47;1779266;80;21076;-83
2021/10/19 03:41:21;;;;;;;46.23;19.02;;;;;;;7.34;100.00;101363.28;1779626;80;20860;-83
2021/10/19 03:43:47;;;;;;;45.52;18.55;;;;;;;7.33;100.00;101369.70;1779564;80;21018;-83
2021/10/19 03:46:13;;;;;;;47.88;19.02;;;;;;;7.32;100.00;101375.27;1779625;80;20881;-89
2021/10/19 03:48:38;;;;;;;48.75;19.48;;;;;;;7.32;100.00;101372.58;1779522;80;21116;-83
2021/10/19 03:51:04;;;;;;;49.03;19.65;;;;;;;7.32;100.00;101371.23;1779515;80;21037;-80
2021/10/19 03:53:30;;;;;;;50.30;20.15;;;;;;;7.31;100.00;101371.77;1779496;80;20998;-81
2021/10/19 03:55:56;;;;;;;51.18;18.75;;;;;;;7.28;100.00;101375.70;1779443;80;20864;-83
2021/10/19 03:58:23;;;;;;;48.48;19.87;;;;;;;7.28;100.00;101376.23;1779599;80;21654;-83
2021/10/19 04:00:49;;;;;;;47.88;19.55;;;;;;;7.30;100.00;101382.73;1779360;80;21970;-82
2021/10/19 04:03:15;;;;;;;45.92;19.02;;;;;;;7.30;100.00;101378.18;1779461;80;20876;-82
2021/10/19 04:05:41;;;;;;;46.37;19.27;;;;;;;7.31;100.00;101386.52;1779154;80;21016;-84
2021/10/19 04:08:07;;;;;;;48.20;19.80;;;;;;;7.32;100.00;101385.98;1779881;80;21034;-83
2021/10/19 04:10:33;;;;;;;53.60;21.23;;;;;;;7.32;100.00;101386.80;1785326;80;20860;-89
2021/10/19 04:12:59;;;;;;;49.00;20.10;;;;;;;7.36;100.00;101389.89;1785257;80;20984;-82
2021/10/19 04:15:25;;;;;;;47.05;18.90;;;;;;;7.38;100.00;101385.11;1785560;80;21601;-83
2021/10/19 04:17:51;;;;;;;42.93;19.17;;;;;;;7.40;100.00;101385.72;1784845;80;21011;-82
2021/10/19 04:20:17;;;;;;;50.78;19.90;;;;;;;7.42;100.00;101390.36;1785307;80;20963;-82
2021/10/19 04:22:43;;;;;;;46.30;19.25;;;;;;;7.45;100.00;101399.30;1785136;80;20896;-87
2021/10/19 04:25:09;;;;;;;51.65;19.17;;;;;;;7.47;100.00;101394.52;1785313;80;21655;-82
2021/10/19 04:27:35;;;;;;;51.10;20.02;;;;;;;7.48;100.00;101394.31;1780214;80;20987;-81
2021/10/19 04:30:01;;;;;;;46.70;19.40;;;;;;;7.47;100.00;101388.66;1785047;80;20864;-83
2021/10/19 04:32:27;;;;;;;45.35;19.00;;;;;;;7.48;100.00;101398.86;1785468;80;20999;-84
2021/10/19 04:34:52;;;;;;;43.92;18.25;;;;;;;7.49;100.00;101400.49;1785343;80;20864;-84
2021/10/19 04:37:18;;;;;;;43.98;18.48;;;;;;;7.43;100.00;101392.80;1785174;80;20947;-84
2021/10/19 04:39:45;;;;;;;44.10;17.80;;;;;;;7.49;100.00;101407.20;1785303;80;20881;-82
2021/10/19 04:42:11;;;;;;;41.45;17.15;;;;;;;7.37;100.00;101399.56;1785302;80;21011;-82
2021/10/19 04:44:36;;;;;;;41.60;18.20;;;;;;;7.44;100.00;101421.28;1785146;80;20934;-81
2021/10/19 04:47:03;;;;;;;42.45;15.58;;;;;;;7.42;100.00;101427.90;1756619;80;20852;-81
2021/10/19 04:49:29;;;;;;;41.05;15.70;;;;;;;7.38;100.00;101430.69;1784952;80;21164;-79
2021/10/19 04:51:54;;;;;;;38.33;16.15;;;;;;;7.31;100.00;101437.98;1780155;80;20923;-82
2021/10/19 04:54:20;;;;;;;40.30;14.65;;;;;;;7.26;100.00;101435.94;1785476;80;20892;-81
2021/10/19 04:56:46;;;;;;;39.18;14.83;;;;;;;7.27;100.00;101440.28;1785326;80;20931;-80
2021/10/19 04:59:12;;;;;;;37.10;14.50;;;;;;;7.25;100.00;101448.52;1756615;80;20979;-81
2021/10/19 05:01:38;;;;;;;31.80;13.43;;;;;;;7.26;100.00;101458.23;1785040;80;21100;-81
2021/10/19 05:04:04;;;;;;;35.48;14.65;;;;;;;7.27;100.00;101460.38;1785221;80;20947;-79
2021/10/19 05:06:30;;;;;;;30.27;13.13;;;;;;;7.29;100.00;101473.03;1784822;80;21143;-81
2021/10/19 05:08:55;;;;;;;32.15;11.97;;;;;;;7.28;100.00;101479.44;1786084;80;20994;-80
2021/10/19 05:11:21;;;;;;;33.70;12.95;;;;;;;7.25;100.00;101472.65;1788384;80;20963;-81
2021/10/19 05:13:47;;;;;;;30.57;11.65;;;;;;;7.25;100.00;101478.53;1788401;80;21712;-81
2021/10/19 05:16:13;;;;;;;29.07;11.25;;;;;;;7.25;100.00;101478.53;1788395;80;20942;-82
2021/10/19 05:18:39;;;;;;;32.40;12.10;;;;;;;7.13;100.00;101467.67;1788307;80;20888;-81
2021/10/19 05:21:05;;;;;;;31.57;12.05;;;;;;;7.22;100.00;101482.47;1788388;80;21054;-82
2021/10/19 05:23:32;;;;;;;29.32;11.57;;;;;;;7.19;100.00;101476.20;1788013;80;21057;-82
2021/10/19 05:25:59;;;;;;;34.03;13.00;;;;;;;7.14;100.00;101467.97;1788528;80;21068;-82
2021/10/19 05:28:25;;;;;;;27.10;11.15;;;;;;;7.08;100.00;101476.05;1788398;80;20984;-81
2021/10/19 05:30:51;;;;;;;26.95;12.20;;;;;;;7.05;100.00;101490.17;1788258;80;21046;-82
2021/10/19 05:33:17;;;;;;;28.45;12.35;;;;;;;7.07;100.00;101489.98;1788192;80;21018;-82
2021/10/19 05:35:42;;;;;;;31.65;12.18;;;;;;;7.11;100.00;101491.70;1788615;80;20908;-81
2021/10/19 05:38:09;;;;;;;29.50;11.68;;;;;;;7.15;100.00;101490.26;1788418;80;21577;-81
2021/10/19 05:40:34;;;;;;;31.77;10.90;;;;;;;7.21;100.00;101492.89;1788410;80;21611;-80
2021/10/19 05:43:00;;;;;;;32.53;11.45;;;;;;;7.25;100.00;101494.09;1788301;80;20895;-81
2021/10/19 05:45:26;;;;;;;29.57;12.45;;;;;;;7.33;100.00;101502.41;1788450;80;21573;-85
2021/10/19 05:47:52;;;;;;;28.05;11.93;;;;;;;7.34;100.00;101509.41;1788145;80;21047;-84
2021/10/19 05:50:18;;;;;;;27.52;11.43;;;;;;;7.35;100.00;101516.93;1788425;80;21104;-80
2021/10/19 05:52:45;;;;;;;24.98;11.75;;;;;;;7.39;100.00;101510.12;1788492;80;20979;-76
2021/10/19 05:55:11;;;;;;;27.40;11.38;;;;;;;7.48;100.00;101516.86;1761928;80;21729;-81
2021/10/19 05:57:38;;;;;;;26.00;11.05;;;;;;;7.53;100.00;101521.06;1783965;80;21054;-79
2021/10/19 06:00:07;;;;;;;30.43;11.50;;;;;;;7.59;100.00;101521.54;1788093;80;21030;-77
2021/10/19 06:02:33;;;;;;;26.00;11.10;;;;;;;7.70;100.00;101525.36;1788162;80;21037;-86
2021/10/19 06:04:59;;;;;;;24.92;10.60;;;;;;;7.79;100.00;101532.10;1788333;80;20900;-79
2021/10/19 06:07:25;;;;;;;26.93;11.73;;;;;;;7.92;100.00;101536.04;1766114;81;20889;-80
2021/10/19 06:09:50;;;;;;;22.27;10.38;;;;;;;8.01;100.00;101545.17;1761447;81;20944;-79
2021/10/19 06:12:16;;;;;;;24.55;10.32;;;;;;;8.10;100.00;101546.00;1758077;81;20889;-78
2021/10/19 06:14:42;;;;;;;21.57;9.53;;;;;;;8.19;100.00;101549.23;1758193;81;21098;-78
2021/10/19 06:17:10;;;;;;;25.05;10.53;;;;;;;8.23;100.00;101559.02;1758032;81;20973;-79
2021/10/19 06:19:36;;;;;;;22.50;9.88;;;;;;;8.26;100.00;101555.88;1758484;81;21032;-83
2021/10/19 06:22:03;;;;;;;23.67;10.48;;;;;;;8.38;100.00;101551.42;1758431;81;20845;-79
2021/10/19 06:24:29;;;;;;;25.12;10.55;;;;;;;8.64;100.00;101551.19;1758122;81;21040;-80
2021/10/19 06:26:55;;;;;;;24.45;9.50;;;;;;;8.87;100.00;101557.24;1758342;81;21846;-77
2021/10/19 06:29:21;;;;;;;24.63;9.80;;;;;;;9.21;100.00;101562.23;1758276;81;21020;-78
2021/10/19 06:31:47;;;;;;;20.60;9.45;;;;;;;9.59;100.00;101561.07;1766539;80;21066;-79
2021/10/19 06:34:13;;;;;;;18.48;8.73;;;;;;;9.99;100.00;101560.77;1779602;80;20951;-80
2021/10/19 06:36:40;;;;;;;21.68;8.23;;;;;;;10.34;100.00;101564.05;1779488;80;21040;-77
2021/10/19 06:39:06;;;;;;;18.48;7.92;;;;;;;10.46;100.00;101567.56;1779766;80;21610;-78
2021/10/19 06:41:33;;;;;;;17.90;7.30;;;;;;;10.59;100.00;101565.67;1779548;80;21468;-80
2021/10/19 06:43:59;;;;;;;14.33;7.15;;;;;;;10.60;100.00;101571.38;1779128;80;21058;-79
2021/10/19 06:46:26;;;;;;;14.53;7.03;;;;;;;10.54;100.00;101570.44;1779454;80;21074;-76
2021/10/19 06:48:51;;;;;;;13.05;6.03;;;;;;;10.41;100.00;101565.27;1779646;80;21015;-81
2021/10/19 06:51:17;;;;;;;14.25;5.70;;;;;;;10.38;100.00;101570.62;1744336;80;21864;-75
2021/10/19 06:53:43;;;;;;;13.48;5.33;;;;;;;10.24;100.00;101578.08;1731148;81;21019;-81
2021/10/19 06:56:10;;;;;;;13.03;5.97;;;;;;;10.12;100.00;101577.25;1725781;82;21107;-84
2021/10/19 06:58:36;;;;;;;11.50;4.78;;;;;;;10.22;100.00;101577.48;1726300;81;21575;-81
2021/10/19 07:01:05;;;;;;;10.95;3.90;;;;;;;10.32;100.00;101579.63;1726816;81;21078;-81
2021/10/19 07:03:29;;;;;;;7.53;4.03;;;;;;;10.49;100.00;101577.59;1741560;82;21028;-77
2021/10/19 07:06:00;;;;;;;4.80;2.40;;;;;;;10.85;100.00;101581.38;1724809;82;20940;-81
2021/10/19 07:08:23;;;;;;;3.45;2.08;;;;;;;11.14;100.00;101574.12;1741442;82;21079;-81
2021/10/19 07:10:49;;;;;;;4.58;2.30;;;;;;;11.29;100.00;101579.00;1754481;80;20953;-81
2021/10/19 07:13:21;;;;;;;4.10;2.12;;;;;;;11.35;100.00;101579.42;1756882;80;20871;-80
2021/10/19 07:15:43;;;;;;;5.75;2.20;;;;;;;11.30;100.00;101587.41;1756217;80;21562;-80
2021/10/19 07:18:09;;;;;;;6.17;2.65;;;;;;;11.09;100.00;101592.93;1756847;80;21021;-78
2021/10/19 07:20:34;;;;;;;6.62;2.95;;;;;;;10.81;100.00;101597.72;1732844;81;20964;-76
2021/10/19 07:23:00;;;;;;;9.10;2.72;;;;;;;10.54;100.00;101597.92;1746665;80;20931;-81
2021/10/19 07:25:28;;;;;;;6.37;3.05;;;;;;;10.32;100.00;101598.48;1745814;80;21136;-80
2021/10/19 07:30:23;;;;;;;7.22;3.30;;;;;;;10.39;100.00;101597.04;1660661;85;21041;-80
2021/10/19 07:32:49;;;;;;;5.65;3.20;;;;;;;10.50;100.00;101591.34;1662618;84;21009;-79
2021/10/19 07:35:17;;;;;;;11.25;4.17;;;;;;;10.80;100.00;101594.73;1693132;84;20999;-77
2021/10/19 07:37:43;;;;;;;8.65;3.17;;;;;;;11.46;100.00;101590.39;1693576;84;20975;-81
2021/10/19 07:40:11;;;;;;;9.35;3.95;;;;;;;11.85;100.00;101597.30;1689829;83;21863;-80
2021/10/19 07:42:38;;;;;;;10.35;3.90;;;;;;;11.90;100.00;101596.08;1685771;84;21086;-80
2021/10/19 07:45:07;;;;;;;7.50;3.85;;;;;;;13.98;100.00;101596.39;1690482;84;21499;-83
2021/10/19 07:47:37;;;;;;;7.45;3.42;;;;;;;16.43;100.00;101588.36;1694003;84;21046;-85
2021/10/19 07:50:04;;;;;;;6.92;3.85;;;;;;;18.18;100.00;101589.13;1692383;84;21090;-86
2021/10/19 07:52:30;;;;;;;9.40;3.27;;;;;;;19.89;100.00;101578.33;1695545;84;21215;-85
2021/10/19 07:54:56;;;;;;;7.45;3.00;;;;;;;21.33;88.00;101581.34;1694309;84;20875;-81
2021/10/19 07:57:22;;;;;;;6.92;3.42;;;;;;;22.55;70.65;101580.05;1696361;84;21030;-83
2021/10/19 07:59:48;;;;;;;7.55;3.30;;;;;;;23.60;60.15;101577.79;1696241;84;20995;-84
2021/10/19 08:02:14;;;;;;;4.80;2.87;;;;;;;24.69;52.53;101579.37;1696595;84;21747;-84
2021/10/19 08:04:40;;;;;;;8.70;3.20;;;;;;;25.22;51.47;101578.52;1672835;84;21036;-84
2021/10/19 08:07:06;;;;;;;7.08;2.90;;;;;;;26.09;47.27;101587.44;1695732;84;21046;-83
2021/10/19 08:09:33;;;;;;;5.83;2.92;;;;;;;26.25;42.56;101586.45;1695238;84;20950;-83
2021/10/19 08:11:59;;;;;;;5.80;2.80;;;;;;;25.61;42.19;101589.08;1690621;84;22260;-83
2021/10/19 08:14:25;;;;;;;5.17;2.70;;;;;;;26.11;42.09;101594.25;1691448;84;20844;-81
2021/10/19 08:16:51;;;;;;;3.95;2.90;;;;;;;26.17;38.82;101594.26;1685878;83;21965;-86
2021/10/19 08:19:17;;;;;;;5.12;2.70;;;;;;;26.40;37.99;101600.19;1670300;83;21113;-83
2021/10/19 08:21:43;;;;;;;5.25;2.83;;;;;;;27.25;38.54;101600.01;1664751;86;21042;-82
2021/10/19 08:24:08;;;;;;;4.72;3.10;;;;;;;27.96;35.86;101593.56;1641827;86;21563;-84
2021/10/19 08:26:34;;;;;;;4.33;2.55;;;;;;;26.20;35.71;101604.62;1667568;84;21040;-85
2021/10/19 08:29:03;;;;;;;3.70;2.35;;;;;;;26.49;35.16;101605.06;1677381;85;22088;-84
2021/10/19 08:31:31;;;;;;;5.87;3.15;;;;;;;26.02;34.22;101600.44;1677357;85;20978;-85
2021/10/19 08:33:58;;;;;;;5.17;2.17;;;;;;;24.91;34.77;101609.44;1677164;85;21110;-82
2021/10/19 08:36:24;;;;;;;3.55;2.40;;;;;;;23.16;34.56;101620.14;1677344;83;21085;-84
2021/10/19 08:38:52;;;;;;;5.30;2.58;;;;;;;21.25;37.49;101618.27;1696815;83;21168;-82
2021/10/19 08:41:19;;;;;;;3.90;2.30;;;;;;;20.06;39.32;101617.99;1696571;84;21051;-83
2021/10/19 08:43:47;;;;;;;3.45;1.85;;;;;;;19.35;41.03;101621.20;1696432;83;21152;-82
2021/10/19 08:46:15;;;;;;;6.17;2.42;;;;;;;18.33;40.50;101621.77;1707289;83;20996;-82
2021/10/19 08:48:42;;;;;;;3.83;1.80;;;;;;;16.96;41.37;101622.83;1747613;82;21016;-82
2021/10/19 08:51:09;;;;;;;3.40;1.82;;;;;;;16.11;44.54;101632.98;1742756;81;21030;-81
2021/10/19 08:53:38;;;;;;;6.00;1.85;;;;;;;15.67;45.22;101628.83;1733378;80;21149;-79
2021/10/19 08:56:05;;;;;;;4.47;1.85;;;;;;;15.26;46.28;101621.07;1701295;83;21068;-84
2021/10/19 08:58:32;;;;;;;3.02;1.50;;;;;;;15.19;46.90;101627.30;1709400;83;21012;-81
2021/10/19 09:01:10;;;;;;;3.00;1.37;;;;;;;15.02;48.13;101623.42;1701859;82;21060;-82
2021/10/19 09:03:48;;;;;;;4.37;1.55;;;;;;;14.81;47.41;101627.12;1690618;83;21067;-82
2021/10/19 09:06:14;;;;;;;3.35;1.60;;;;;;;14.39;47.71;101632.78;1659342;85;21431;-83
2021/10/19 09:08:51;;;;;;;3.58;1.65;;;;;;;14.04;49.18;101631.41;1656627;85;20993;-81
2021/10/19 09:11:17;;;;;;;5.80;2.17;;;;;;;13.91;50.29;101628.28;1643925;86;21153;-81
2021/10/19 09:13:54;;;;;;;3.08;1.85;;;;;;;13.84;51.45;101625.25;1639943;86;21094;-83
2021/10/19 09:16:39;;;;;;;3.22;1.50;;;;;;;13.91;52.89;101629.64;1634718;87;21663;-81
2021/10/19 09:19:05;;;;;;;3.00;1.55;;;;;;;13.71;50.62;101635.15;1634105;87;21684;-82
2021/10/19 09:21:33;;;;;;;1.87;1.27;;;;;;;13.63;50.90;101630.99;1613472;87;21035;-80
2021/10/19 09:24:21;;;;;;;2.50;1.40;;;;;;;13.66;51.08;101626.96;1635195;87;21110;-82
2021/10/19 09:27:10;;;;;;;2.02;1.05;;;;;;;13.72;50.81;101628.65;1635086;87;21043;-80
2021/10/19 09:29:44;;;;;;;4.17;1.20;;;;;;;13.65;51.19;101621.27;1608767;87;21235;-84
2021/10/19 09:32:12;;;;;;;3.92;1.20;;;;;;;13.31;49.88;101631.44;1607208;87;21511;-82
2021/10/19 09:34:41;;;;;;;4.33;1.07;;;;;;;12.94;50.86;101622.03;1608175;87;21068;-82
2021/10/19 09:37:10;;;;;;;2.45;1.20;;;;;;;12.82;52.27;101605.60;1610744;88;21138;-81
2021/10/19 09:39:48;;;;;;;6.53;1.65;;;;;;;12.82;52.27;101605.60;1609233;87;21624;-81
2021/10/19 09:42:28;;;;;;;2.83;1.05;;;;;;;12.86;50.37;101623.80;1582751;88;21120;-82
2021/10/19 09:45:02;;;;;;;3.00;1.60;;;;;;;12.84;51.34;101623.77;1582690;89;22027;-87
2021/10/19 09:47:37;;;;;;;3.33;1.50;;;;;;;12.99;51.18;101620.45;1619240;88;21065;-79
2021/10/19 09:50:07;;;;;;;5.12;1.62;;;;;;;12.95;51.48;101612.83;1624252;88;21089;-84
2021/10/19 09:52:37;;;;;;;3.20;1.50;;;;;;;13.02;52.63;101616.70;1619589;88;21039;-77
2021/10/19 09:55:07;;;;;;;4.10;1.37;;;;;;;13.07;51.92;101619.48;1619380;88;21046;-81
2021/10/19 09:57:34;;;;;;;3.58;1.20;;;;;;;13.08;51.89;101624.35;1619412;88;21246;-81
2021/10/19 10:00:01;;;;;;;2.08;1.05;;;;;;;12.89;50.35;101630.06;1619392;88;21014;-81
2021/10/19 10:02:28;;;;;;;2.83;1.20;;;;;;;12.72;49.42;101635.50;1623948;87;21527;-81
2021/10/19 10:04:54;;;;;;;2.70;1.10;;;;;;;12.52;50.50;101630.33;1617175;86;21562;-81
2021/10/19 10:07:21;;;;;;;4.33;1.12;;;;;;;12.52;51.06;101629.79;1633831;86;21094;-81
2021/10/19 10:09:48;;;;;;;2.12;1.02;;;;;;;12.65;50.73;101619.18;1634338;85;21086;-80
2021/10/19 10:12:14;;;;;;;3.17;1.25;;;;;;;12.85;51.80;101624.04;1665536;84;21059;-82
2021/10/19 10:14:45;;;;;;;6.17;1.62;;;;;;;13.09;51.05;101626.01;1664874;84;20884;-81
2021/10/19 10:17:12;;;;;;;4.55;1.10;;;;;;;13.15;50.11;101625.81;1665154;85;21154;-81
2021/10/19 10:19:39;;;;;;;2.92;1.35;;;;;;;13.24;49.90;101632.15;1671099;85;21630;-80
2021/10/19 10:25:12;;;;;;;3.00;1.22;;;;;;;13.13;47.88;101626.59;1619505;87;21115;-78
2021/10/19 10:27:38;;;;;;;2.85;1.20;;;;;;;13.13;47.71;101621.17;1630037;88;21172;-82
2021/10/19 10:30:07;;;;;;;2.22;1.20;;;;;;;13.21;47.29;101629.91;1629878;88;21042;-81
2021/10/19 10:32:37;;;;;;;2.35;1.17;;;;;;;13.21;47.44;101632.63;1629991;88;21568;-81
2021/10/19 10:35:19;;;;;;;1.50;0.90;;;;;;;13.26;47.70;101632.19;1629718;88;21503;-82
2021/10/19 10:37:51;;;;;;;2.67;1.27;;;;;;;13.15;47.36;101633.12;1608578;88;21586;-81
2021/10/19 10:40:40;;;;;;;3.00;1.20;;;;;;;13.12;47.18;101633.08;1611724;87;21595;-81
2021/10/19 10:43:23;;;;;;;2.08;1.10;;;;;;;13.13;46.82;101629.84;1616164;87;21092;-81
2021/10/19 10:46:10;;;;;;;2.10;0.90;;;;;;;13.04;46.14;101632.16;1584716;88;21096;-83
2021/10/19 10:48:37;;;;;;;2.15;1.07;;;;;;;13.03;46.97;101634.59;1520077;92;21229;-83
2021/10/19 10:51:05;;;;;;;3.02;1.00;;;;;;;13.16;46.48;101635.56;1521600;92;21634;-82
2021/10/19 10:53:36;;;;;;;3.80;1.40;;;;;;;13.20;46.39;101642.63;1517744;94;21188;-82
2021/10/19 10:56:04;;;;;;;5.30;1.00;;;;;;;13.01;45.69;101640.78;1515177;93;21079;-83
2021/10/19 10:58:35;;;;;;;4.12;1.25;;;;;;;12.81;46.00;101639.95;1522069;93;22029;-82
2021/10/19 11:01:23;;;;;;;3.05;1.20;;;;;;;12.67;46.16;101639.48;1516892;94;21194;-82
2021/10/19 11:03:57;;;;;;;2.65;1.02;;;;;;;12.47;46.19;101641.87;1517163;93;21106;-84
2021/10/19 11:06:25;;;;;;;2.92;1.15;;;;;;;12.30;46.66;101643.24;1518537;93;21669;-83
2021/10/19 11:09:01;;;;;;;3.72;1.50;;;;;;;12.24;47.17;101631.53;1512841;94;21121;-83
2021/10/19 11:11:30;;;;;;;1.42;0.82;;;;;;;12.34;47.96;101627.34;1505184;92;21082;-83
2021/10/19 11:14:02;;;;;;;2.33;1.15;;;;;;;12.47;46.88;101630.55;1499304;95;21222;-83
2021/10/19 11:16:47;;;;;;;3.45;1.57;;;;;;;12.46;46.88;101630.23;1489183;96;21144;-84
2021/10/19 11:19:26;;;;;;;6.78;1.07;;;;;;;12.31;47.08;101630.55;1488344;96;21114;-83
2021/10/19 11:22:06;;;;;;;4.08;1.75;;;;;;;12.28;46.70;101629.95;1504210;94;21094;-82
2021/10/19 11:24:35;;;;;;;3.72;1.15;;;;;;;12.32;45.89;101636.22;1512692;94;21022;-83